sensor_id;sensor_type;location;lat;lon;timestamp;temperature;humidity
59067;DHT22;44854;50.838;4.438;2023-12-04T00:00:40;4.10;99.90
59067;DHT22;44854;50.838;4.438;2023-12-04T00:03:05;4.30;99.90
59067;DHT22;44854;50.838;4.438;2023-12-04T00:05:31;4.30;99.90
59067;DHT22;44854;50.838;4.438;2023-12-04T00:07:56;4.30;99.90
59067;DHT22;44854;50.838;4.438;2023-12-04T00:10:22;4.40;99.90
59067;DHT22;44854;50.838;4.438;2023-12-04T00:12:48;4.20;99.90
59067;DHT22;44854;50.838;4.438;2023-12-04T00:15:13;4.20;99.90
59067;DHT22;44854;50.838;4.438;2023-12-04T00:17:39;4.30;99.90
59067;DHT22;44854;50.838;4.438;2023-12-04T00:20:09;4.50;99.90
59067;DHT22;44854;50.838;4.438;2023-12-04T00:22:35;4.40;99.90
59067;DHT22;44854;50.838;4.438;2023-12-04T00:25:02;4.20;99.90
59067;DHT22;44854;50.838;4.438;2023-12-04T00:27:29;4.30;99.90
59067;DHT22;44854;50.838;4.438;2023-12-04T00:29:54;4.70;99.90
59067;DHT22;44854;50.838;4.438;2023-12-04T00:32:20;4.40;99.90
59067;DHT22;44854;50.838;4.438;2023-12-04T00:34:46;4.40;99.90
59067;DHT22;44854;50.838;4.438;2023-12-04T00:37:12;4.40;99.90
59067;DHT22;44854;50.838;4.438;2023-12-04T00:39:37;4.40;99.90
59067;DHT22;44854;50.838;4.438;2023-12-04T00:42:04;4.50;99.90
59067;DHT22;44854;50.838;4.438;2023-12-04T00:44:30;4.40;99.90
59067;DHT22;44854;50.838;4.438;2023-12-04T00:46:56;4.20;99.90
59067;DHT22;44854;50.838;4.438;2023-12-04T00:49:22;4.50;99.90
59067;DHT22;44854;50.838;4.438;2023-12-04T00:51:47;4.40;99.90
59067;DHT22;44854;50.838;4.438;2023-12-04T00:54:13;4.40;99.90
59067;DHT22;44854;50.838;4.438;2023-12-04T00:56:39;4.40;99.90
59067;DHT22;44854;50.838;4.438;2023-12-04T00:59:06;4.40;99.90
59067;DHT22;44854;50.838;4.438;2023-12-04T01:01:32;4.70;99.90
59067;DHT22;44854;50.838;4.438;2023-12-04T01:03:58;4.50;99.90
59067;DHT22;44854;50.838;4.438;2023-12-04T01:06:25;4.40;99.90
59067;DHT22;44854;50.838;4.438;2023-12-04T01:08:52;4.50;99.90
59067;DHT22;44854;50.838;4.438;2023-12-04T01:11:18;4.70;99.90
59067;DHT22;44854;50.838;4.438;2023-12-04T01:13:47;4.30;99.90
59067;DHT22;44854;50.838;4.438;2023-12-04T01:16:13;4.40;99.90
59067;DHT22;44854;50.838;4.438;2023-12-04T01:18:40;4.30;99.90
59067;DHT22;44854;50.838;4.438;2023-12-04T01:21:06;4.30;99.90
59067;DHT22;44854;50.838;4.438;2023-12-04T01:50:28;4.30;99.90
59067;DHT22;44854;50.838;4.438;2023-12-04T01:52:54;4.40;99.90
59067;DHT22;44854;50.838;4.438;2023-12-04T01:55:20;4.50;99.90
59067;DHT22;44854;50.838;4.438;2023-12-04T01:57:47;4.50;99.90
59067;DHT22;44854;50.838;4.438;2023-12-04T02:00:13;4.60;99.90
59067;DHT22;44854;50.838;4.438;2023-12-04T02:02:40;4.60;99.90
59067;DHT22;44854;50.838;4.438;2023-12-04T02:05:08;4.40;99.90
59067;DHT22;44854;50.838;4.438;2023-12-04T02:07:34;4.50;99.90
59067;DHT22;44854;50.838;4.438;2023-12-04T02:10:02;4.30;99.90
59067;DHT22;44854;50.838;4.438;2023-12-04T02:12:28;4.40;99.90
59067;DHT22;44854;50.838;4.438;2023-12-04T02:14:54;4.40;99.90
59067;DHT22;44854;50.838;4.438;2023-12-04T02:17:20;4.60;99.90
59067;DHT22;44854;50.838;4.438;2023-12-04T02:19:46;4.80;99.90
59067;DHT22;44854;50.838;4.438;2023-12-04T02:22:12;4.70;99.90
59067;DHT22;44854;50.838;4.438;2023-12-04T02:24:37;4.60;99.90
59067;DHT22;44854;50.838;4.438;2023-12-04T02:27:18;4.70;99.90
59067;DHT22;44854;50.838;4.438;2023-12-04T02:30:01;4.30;99.90
59067;DHT22;44854;50.838;4.438;2023-12-04T02:32:30;4.30;99.90
59067;DHT22;44854;50.838;4.438;2023-12-04T02:34:57;4.30;99.90
59067;DHT22;44854;50.838;4.438;2023-12-04T02:37:26;4.50;99.90
59067;DHT22;44854;50.838;4.438;2023-12-04T02:39:52;4.50;99.90
59067;DHT22;44854;50.838;4.438;2023-12-04T02:42:21;4.50;99.90
59067;DHT22;44854;50.838;4.438;2023-12-04T02:44:46;4.60;99.90
59067;DHT22;44854;50.838;4.438;2023-12-04T02:47:12;4.70;99.90
59067;DHT22;44854;50.838;4.438;2023-12-04T02:49:38;4.60;99.90
59067;DHT22;44854;50.838;4.438;2023-12-04T02:52:04;4.50;99.90
59067;DHT22;44854;50.838;4.438;2023-12-04T02:54:29;4.30;99.90
59067;DHT22;44854;50.838;4.438;2023-12-04T02:56:55;4.20;99.90
59067;DHT22;44854;50.838;4.438;2023-12-04T02:59:21;4.40;99.90
59067;DHT22;44854;50.838;4.438;2023-12-04T03:01:46;4.30;99.90
59067;DHT22;44854;50.838;4.438;2023-12-04T03:04:13;4.30;99.90
59067;DHT22;44854;50.838;4.438;2023-12-04T03:06:39;4.20;99.90
59067;DHT22;44854;50.838;4.438;2023-12-04T03:09:04;4.40;99.90
59067;DHT22;44854;50.838;4.438;2023-12-04T03:11:30;4.40;99.90
59067;DHT22;44854;50.838;4.438;2023-12-04T03:13:56;4.60;99.90
59067;DHT22;44854;50.838;4.438;2023-12-04T03:16:22;4.60;99.90
59067;DHT22;44854;50.838;4.438;2023-12-04T03:18:47;4.70;99.90
59067;DHT22;44854;50.838;4.438;2023-12-04T03:21:13;4.50;99.90
59067;DHT22;44854;50.838;4.438;2023-12-04T03:23:38;4.40;99.90
59067;DHT22;44854;50.838;4.438;2023-12-04T03:26:04;4.30;99.90
59067;DHT22;44854;50.838;4.438;2023-12-04T03:28:30;4.50;99.90
59067;DHT22;44854;50.838;4.438;2023-12-04T03:30:56;4.40;99.90
59067;DHT22;44854;50.838;4.438;2023-12-04T03:33:22;4.40;99.90
59067;DHT22;44854;50.838;4.438;2023-12-04T03:35:48;4.50;99.90
59067;DHT22;44854;50.838;4.438;2023-12-04T03:38:13;4.50;99.90
59067;DHT22;44854;50.838;4.438;2023-12-04T03:40:39;4.40;99.90
59067;DHT22;44854;50.838;4.438;2023-12-04T03:43:05;4.50;99.90
59067;DHT22;44854;50.838;4.438;2023-12-04T03:45:30;4.40;99.90
59067;DHT22;44854;50.838;4.438;2023-12-04T03:47:56;4.30;99.90
59067;DHT22;44854;50.838;4.438;2023-12-04T03:50:21;4.40;99.90
59067;DHT22;44854;50.838;4.438;2023-12-04T03:52:48;4.30;99.90
59067;DHT22;44854;50.838;4.438;2023-12-04T03:55:13;4.30;99.90
59067;DHT22;44854;50.838;4.438;2023-12-04T03:57:39;4.20;99.90
59067;DHT22;44854;50.838;4.438;2023-12-04T04:00:05;4.30;99.90
59067;DHT22;44854;50.838;4.438;2023-12-04T04:02:31;4.20;99.90
59067;DHT22;44854;50.838;4.438;2023-12-04T04:04:57;4.50;99.90
59067;DHT22;44854;50.838;4.438;2023-12-04T04:07:23;4.50;99.90
59067;DHT22;44854;50.838;4.438;2023-12-04T04:09:48;4.50;99.90
59067;DHT22;44854;50.838;4.438;2023-12-04T04:12:14;4.40;99.90
59067;DHT22;44854;50.838;4.438;2023-12-04T04:14:40;4.50;99.90
59067;DHT22;44854;50.838;4.438;2023-12-04T04:17:05;4.40;99.90
59067;DHT22;44854;50.838;4.438;2023-12-04T04:19:31;4.50;99.90
59067;DHT22;44854;50.838;4.438;2023-12-04T04:21:57;4.50;99.90
59067;DHT22;44854;50.838;4.438;2023-12-04T04:24:23;4.60;99.90
59067;DHT22;44854;50.838;4.438;2023-12-04T04:26:48;4.50;99.90
59067;DHT22;44854;50.838;4.438;2023-12-04T04:29:14;4.70;99.90
59067;DHT22;44854;50.838;4.438;2023-12-04T04:31:39;4.60;99.90
59067;DHT22;44854;50.838;4.438;2023-12-04T04:34:05;4.50;99.90
59067;DHT22;44854;50.838;4.438;2023-12-04T04:36:31;4.60;99.90
59067;DHT22;44854;50.838;4.438;2023-12-04T04:38:57;4.60;99.90
59067;DHT22;44854;50.838;4.438;2023-12-04T04:41:22;4.50;99.90
59067;DHT22;44854;50.838;4.438;2023-12-04T04:43:48;4.30;99.90
59067;DHT22;44854;50.838;4.438;2023-12-04T04:46:14;4.40;99.90
59067;DHT22;44854;50.838;4.438;2023-12-04T04:48:40;4.60;99.90
59067;DHT22;44854;50.838;4.438;2023-12-04T04:51:06;4.60;99.90
59067;DHT22;44854;50.838;4.438;2023-12-04T04:53:32;4.50;99.90
59067;DHT22;44854;50.838;4.438;2023-12-04T04:55:57;4.50;99.90
59067;DHT22;44854;50.838;4.438;2023-12-04T04:58:23;4.50;99.90
59067;DHT22;44854;50.838;4.438;2023-12-04T05:00:49;4.70;99.90
59067;DHT22;44854;50.838;4.438;2023-12-04T05:03:15;4.60;99.90
59067;DHT22;44854;50.838;4.438;2023-12-04T05:05:40;4.60;99.90
59067;DHT22;44854;50.838;4.438;2023-12-04T05:08:06;4.60;99.90
59067;DHT22;44854;50.838;4.438;2023-12-04T05:10:32;4.70;99.90
59067;DHT22;44854;50.838;4.438;2023-12-04T05:12:57;4.50;99.90
59067;DHT22;44854;50.838;4.438;2023-12-04T05:15:23;4.60;99.90
59067;DHT22;44854;50.838;4.438;2023-12-04T05:17:49;4.70;99.90
59067;DHT22;44854;50.838;4.438;2023-12-04T05:20:15;4.70;99.90
59067;DHT22;44854;50.838;4.438;2023-12-04T05:22:40;4.80;99.90
59067;DHT22;44854;50.838;4.438;2023-12-04T05:25:06;4.90;99.90
59067;DHT22;44854;50.838;4.438;2023-12-04T05:27:35;5.00;99.90
59067;DHT22;44854;50.838;4.438;2023-12-04T05:30:01;5.10;99.90
59067;DHT22;44854;50.838;4.438;2023-12-04T05:32:27;4.90;99.90
59067;DHT22;44854;50.838;4.438;2023-12-04T05:34:53;4.80;99.90
59067;DHT22;44854;50.838;4.438;2023-12-04T05:37:18;4.80;99.90
59067;DHT22;44854;50.838;4.438;2023-12-04T05:39:44;4.80;99.90
59067;DHT22;44854;50.838;4.438;2023-12-04T05:42:10;4.90;99.90
59067;DHT22;44854;50.838;4.438;2023-12-04T05:44:35;5.00;99.90
59067;DHT22;44854;50.838;4.438;2023-12-04T05:47:01;5.00;99.90
59067;DHT22;44854;50.838;4.438;2023-12-04T05:49:27;5.00;99.90
59067;DHT22;44854;50.838;4.438;2023-12-04T05:51:54;4.90;99.90
59067;DHT22;44854;50.838;4.438;2023-12-04T05:54:20;5.00;99.90
59067;DHT22;44854;50.838;4.438;2023-12-04T05:56:46;4.80;99.90
59067;DHT22;44854;50.838;4.438;2023-12-04T05:59:12;4.90;99.90
59067;DHT22;44854;50.838;4.438;2023-12-04T06:01:37;4.90;99.90
59067;DHT22;44854;50.838;4.438;2023-12-04T06:04:03;5.10;99.90
59067;DHT22;44854;50.838;4.438;2023-12-04T06:06:29;5.00;99.90
59067;DHT22;44854;50.838;4.438;2023-12-04T06:08:55;4.90;99.90
59067;DHT22;44854;50.838;4.438;2023-12-04T06:11:20;4.80;99.90
59067;DHT22;44854;50.838;4.438;2023-12-04T06:13:46;4.80;99.90
59067;DHT22;44854;50.838;4.438;2023-12-04T06:16:13;5.00;99.90
59067;DHT22;44854;50.838;4.438;2023-12-04T06:18:39;4.90;99.90
59067;DHT22;44854;50.838;4.438;2023-12-04T06:21:04;4.90;99.90
59067;DHT22;44854;50.838;4.438;2023-12-04T06:23:30;4.80;99.90
59067;DHT22;44854;50.838;4.438;2023-12-04T06:25:56;4.80;99.90
59067;DHT22;44854;50.838;4.438;2023-12-04T06:28:22;4.90;99.90
59067;DHT22;44854;50.838;4.438;2023-12-04T06:30:48;4.80;99.90
59067;DHT22;44854;50.838;4.438;2023-12-04T06:33:17;4.80;99.90
59067;DHT22;44854;50.838;4.438;2023-12-04T06:35:44;4.80;99.90
59067;DHT22;44854;50.838;4.438;2023-12-04T06:38:11;4.90;99.90
59067;DHT22;44854;50.838;4.438;2023-12-04T06:40:40;4.90;99.90
59067;DHT22;44854;50.838;4.438;2023-12-04T06:43:06;4.90;99.90
59067;DHT22;44854;50.838;4.438;2023-12-04T06:45:33;4.90;99.90
59067;DHT22;44854;50.838;4.438;2023-12-04T06:47:59;4.80;99.90
59067;DHT22;44854;50.838;4.438;2023-12-04T06:50:26;4.80;99.90
59067;DHT22;44854;50.838;4.438;2023-12-04T06:52:52;4.80;99.90
59067;DHT22;44854;50.838;4.438;2023-12-04T06:55:18;4.80;99.90
59067;DHT22;44854;50.838;4.438;2023-12-04T06:57:48;4.80;99.90
59067;DHT22;44854;50.838;4.438;2023-12-04T07:00:17;5.00;99.90
59067;DHT22;44854;50.838;4.438;2023-12-04T07:02:43;5.00;99.90
59067;DHT22;44854;50.838;4.438;2023-12-04T07:05:08;4.90;99.90
59067;DHT22;44854;50.838;4.438;2023-12-04T07:07:34;5.00;99.90
59067;DHT22;44854;50.838;4.438;2023-12-04T07:10:01;5.00;99.90
59067;DHT22;44854;50.838;4.438;2023-12-04T07:12:27;5.10;99.90
59067;DHT22;44854;50.838;4.438;2023-12-04T07:14:53;4.90;99.90
59067;DHT22;44854;50.838;4.438;2023-12-04T07:17:18;5.00;99.90
59067;DHT22;44854;50.838;4.438;2023-12-04T07:19:44;5.10;99.90
59067;DHT22;44854;50.838;4.438;2023-12-04T07:22:10;5.20;99.90
59067;DHT22;44854;50.838;4.438;2023-12-04T07:24:35;5.20;99.90
59067;DHT22;44854;50.838;4.438;2023-12-04T07:27:03;5.20;99.90
59067;DHT22;44854;50.838;4.438;2023-12-04T07:29:29;5.30;99.90
59067;DHT22;44854;50.838;4.438;2023-12-04T07:31:55;5.20;99.90
59067;DHT22;44854;50.838;4.438;2023-12-04T07:34:21;5.40;99.90
59067;DHT22;44854;50.838;4.438;2023-12-04T07:36:46;5.40;99.90
59067;DHT22;44854;50.838;4.438;2023-12-04T07:39:13;5.50;99.90
59067;DHT22;44854;50.838;4.438;2023-12-04T07:41:40;5.50;99.90
59067;DHT22;44854;50.838;4.438;2023-12-04T07:44:06;5.40;99.90
59067;DHT22;44854;50.838;4.438;2023-12-04T07:46:31;5.20;99.90
59067;DHT22;44854;50.838;4.438;2023-12-04T07:49:00;5.00;99.90
59067;DHT22;44854;50.838;4.438;2023-12-04T07:51:26;5.00;99.90
59067;DHT22;44854;50.838;4.438;2023-12-04T07:53:51;5.00;99.90
59067;DHT22;44854;50.838;4.438;2023-12-04T07:56:17;5.00;99.90
59067;DHT22;44854;50.838;4.438;2023-12-04T07:58:43;5.00;99.90
59067;DHT22;44854;50.838;4.438;2023-12-04T08:01:09;5.00;99.90
59067;DHT22;44854;50.838;4.438;2023-12-04T08:03:35;4.90;99.90
59067;DHT22;44854;50.838;4.438;2023-12-04T08:06:01;4.90;99.90
59067;DHT22;44854;50.838;4.438;2023-12-04T08:08:26;4.90;99.90
59067;DHT22;44854;50.838;4.438;2023-12-04T08:10:52;5.00;99.90
59067;DHT22;44854;50.838;4.438;2023-12-04T08:13:18;5.00;99.90
59067;DHT22;44854;50.838;4.438;2023-12-04T08:15:44;5.00;99.90
59067;DHT22;44854;50.838;4.438;2023-12-04T08:18:11;5.00;99.90
59067;DHT22;44854;50.838;4.438;2023-12-04T08:20:37;5.00;99.90
59067;DHT22;44854;50.838;4.438;2023-12-04T08:23:02;4.90;99.90
59067;DHT22;44854;50.838;4.438;2023-12-04T08:25:28;4.90;99.90
59067;DHT22;44854;50.838;4.438;2023-12-04T08:27:54;4.90;99.90
59067;DHT22;44854;50.838;4.438;2023-12-04T08:30:20;5.10;99.90
59067;DHT22;44854;50.838;4.438;2023-12-04T08:32:45;5.00;99.90
59067;DHT22;44854;50.838;4.438;2023-12-04T08:35:12;5.00;99.90
59067;DHT22;44854;50.838;4.438;2023-12-04T08:37:38;5.10;99.90
59067;DHT22;44854;50.838;4.438;2023-12-04T08:40:04;5.00;99.90
59067;DHT22;44854;50.838;4.438;2023-12-04T08:42:30;5.10;99.90
59067;DHT22;44854;50.838;4.438;2023-12-04T08:44:55;5.00;99.90
59067;DHT22;44854;50.838;4.438;2023-12-04T08:47:21;4.90;99.90
59067;DHT22;44854;50.838;4.438;2023-12-04T08:49:47;5.00;99.90
59067;DHT22;44854;50.838;4.438;2023-12-04T08:52:13;5.00;99.90
59067;DHT22;44854;50.838;4.438;2023-12-04T08:54:39;5.00;99.90
59067;DHT22;44854;50.838;4.438;2023-12-04T08:57:07;5.00;99.90
59067;DHT22;44854;50.838;4.438;2023-12-04T08:59:32;5.00;99.90
59067;DHT22;44854;50.838;4.438;2023-12-04T09:01:58;5.00;99.90
59067;DHT22;44854;50.838;4.438;2023-12-04T09:04:24;5.00;99.90
59067;DHT22;44854;50.838;4.438;2023-12-04T09:06:49;4.90;99.90
59067;DHT22;44854;50.838;4.438;2023-12-04T09:09:16;4.90;99.90
59067;DHT22;44854;50.838;4.438;2023-12-04T09:11:42;5.00;99.90
59067;DHT22;44854;50.838;4.438;2023-12-04T09:14:09;5.10;99.90
59067;DHT22;44854;50.838;4.438;2023-12-04T09:16:34;4.90;99.90
59067;DHT22;44854;50.838;4.438;2023-12-04T09:19:00;4.90;99.90
59067;DHT22;44854;50.838;4.438;2023-12-04T09:21:26;5.00;99.90
59067;DHT22;44854;50.838;4.438;2023-12-04T09:23:52;5.00;99.90
59067;DHT22;44854;50.838;4.438;2023-12-04T09:26:18;5.00;99.90
59067;DHT22;44854;50.838;4.438;2023-12-04T09:28:44;5.10;99.90
59067;DHT22;44854;50.838;4.438;2023-12-04T09:31:10;5.10;99.90
59067;DHT22;44854;50.838;4.438;2023-12-04T09:33:35;5.10;99.90
59067;DHT22;44854;50.838;4.438;2023-12-04T09:36:02;5.10;99.90
59067;DHT22;44854;50.838;4.438;2023-12-04T09:38:28;5.00;99.90
59067;DHT22;44854;50.838;4.438;2023-12-04T09:40:58;5.00;99.90
59067;DHT22;44854;50.838;4.438;2023-12-04T09:43:29;4.90;99.90
59067;DHT22;44854;50.838;4.438;2023-12-04T09:45:56;4.90;99.90
59067;DHT22;44854;50.838;4.438;2023-12-04T09:48:25;4.90;99.90
59067;DHT22;44854;50.838;4.438;2023-12-04T09:50:52;4.90;99.90
59067;DHT22;44854;50.838;4.438;2023-12-04T09:53:18;4.90;99.90
59067;DHT22;44854;50.838;4.438;2023-12-04T09:55:49;4.70;99.90
59067;DHT22;44854;50.838;4.438;2023-12-04T09:58:15;4.70;99.90
59067;DHT22;44854;50.838;4.438;2023-12-04T10:00:44;4.50;99.90
59067;DHT22;44854;50.838;4.438;2023-12-04T10:03:10;4.60;99.90
59067;DHT22;44854;50.838;4.438;2023-12-04T10:05:36;4.60;99.90
59067;DHT22;44854;50.838;4.438;2023-12-04T10:08:01;4.50;99.90
59067;DHT22;44854;50.838;4.438;2023-12-04T10:10:28;4.60;99.90
59067;DHT22;44854;50.838;4.438;2023-12-04T10:12:54;4.70;99.90
59067;DHT22;44854;50.838;4.438;2023-12-04T10:15:21;4.60;99.90
59067;DHT22;44854;50.838;4.438;2023-12-04T10:17:47;4.60;99.90
59067;DHT22;44854;50.838;4.438;2023-12-04T10:20:18;4.60;99.90
59067;DHT22;44854;50.838;4.438;2023-12-04T10:22:59;4.70;99.90
59067;DHT22;44854;50.838;4.438;2023-12-04T10:25:30;4.70;99.90
59067;DHT22;44854;50.838;4.438;2023-12-04T10:28:10;4.80;99.90
59067;DHT22;44854;50.838;4.438;2023-12-04T10:30:38;4.80;99.90
59067;DHT22;44854;50.838;4.438;2023-12-04T10:33:05;4.80;99.90
59067;DHT22;44854;50.838;4.438;2023-12-04T10:35:33;4.90;99.90
59067;DHT22;44854;50.838;4.438;2023-12-04T10:38:03;4.90;99.90
59067;DHT22;44854;50.838;4.438;2023-12-04T10:40:32;4.80;99.90
59067;DHT22;44854;50.838;4.438;2023-12-04T10:45:44;5.00;99.90
59067;DHT22;44854;50.838;4.438;2023-12-04T10:48:11;4.90;99.90
59067;DHT22;44854;50.838;4.438;2023-12-04T10:50:48;4.80;99.90
59067;DHT22;44854;50.838;4.438;2023-12-04T10:53:17;4.90;99.90
59067;DHT22;44854;50.838;4.438;2023-12-04T10:55:49;5.00;99.90
59067;DHT22;44854;50.838;4.438;2023-12-04T10:58:17;4.90;99.90
59067;DHT22;44854;50.838;4.438;2023-12-04T11:00:52;5.00;99.90
59067;DHT22;44854;50.838;4.438;2023-12-04T11:03:43;4.90;99.90
59067;DHT22;44854;50.838;4.438;2023-12-04T11:06:11;5.00;99.90
59067;DHT22;44854;50.838;4.438;2023-12-04T11:08:39;5.10;99.90
59067;DHT22;44854;50.838;4.438;2023-12-04T11:11:12;5.10;99.90
59067;DHT22;44854;50.838;4.438;2023-12-04T11:13:40;5.10;99.90
59067;DHT22;44854;50.838;4.438;2023-12-04T11:16:23;5.20;99.90
59067;DHT22;44854;50.838;4.438;2023-12-04T11:19:02;5.30;99.90
59067;DHT22;44854;50.838;4.438;2023-12-04T11:21:32;5.40;99.90
59067;DHT22;44854;50.838;4.438;2023-12-04T11:24:00;5.50;99.90
59067;DHT22;44854;50.838;4.438;2023-12-04T11:26:27;5.40;99.90
59067;DHT22;44854;50.838;4.438;2023-12-04T11:28:54;5.50;99.90
59067;DHT22;44854;50.838;4.438;2023-12-04T11:31:20;5.50;99.90
59067;DHT22;44854;50.838;4.438;2023-12-04T11:33:46;5.50;99.90
59067;DHT22;44854;50.838;4.438;2023-12-04T11:36:12;5.40;99.90
59067;DHT22;44854;50.838;4.438;2023-12-04T11:38:46;5.40;99.90
59067;DHT22;44854;50.838;4.438;2023-12-04T11:43:42;5.40;99.90
59067;DHT22;44854;50.838;4.438;2023-12-04T11:46:09;5.40;99.90
59067;DHT22;44854;50.838;4.438;2023-12-04T11:48:39;5.40;99.90
59067;DHT22;44854;50.838;4.438;2023-12-04T11:51:07;5.40;99.90
59067;DHT22;44854;50.838;4.438;2023-12-04T11:53:40;5.50;99.90
59067;DHT22;44854;50.838;4.438;2023-12-04T11:56:12;5.40;99.90
59067;DHT22;44854;50.838;4.438;2023-12-04T11:58:47;5.50;99.90
59067;DHT22;44854;50.838;4.438;2023-12-04T12:01:16;5.40;99.90
59067;DHT22;44854;50.838;4.438;2023-12-04T12:03:42;5.40;99.90
59067;DHT22;44854;50.838;4.438;2023-12-04T12:06:10;5.40;99.90
59067;DHT22;44854;50.838;4.438;2023-12-04T12:08:36;5.40;99.90
59067;DHT22;44854;50.838;4.438;2023-12-04T12:11:02;5.40;99.90
59067;DHT22;44854;50.838;4.438;2023-12-04T12:13:28;5.40;99.90
59067;DHT22;44854;50.838;4.438;2023-12-04T12:15:54;5.40;99.90
59067;DHT22;44854;50.838;4.438;2023-12-04T12:18:21;5.40;99.90
59067;DHT22;44854;50.838;4.438;2023-12-04T12:20:48;5.50;99.90
59067;DHT22;44854;50.838;4.438;2023-12-04T12:23:14;5.40;99.90
59067;DHT22;44854;50.838;4.438;2023-12-04T12:25:40;5.40;99.90
59067;DHT22;44854;50.838;4.438;2023-12-04T12:28:07;5.50;99.90
59067;DHT22;44854;50.838;4.438;2023-12-04T12:30:33;5.40;99.90
59067;DHT22;44854;50.838;4.438;2023-12-04T12:32:59;5.50;99.90
59067;DHT22;44854;50.838;4.438;2023-12-04T12:35:25;5.60;99.90
59067;DHT22;44854;50.838;4.438;2023-12-04T12:37:51;5.50;99.90
59067;DHT22;44854;50.838;4.438;2023-12-04T12:40:20;5.50;99.90
59067;DHT22;44854;50.838;4.438;2023-12-04T12:42:46;5.70;99.90
59067;DHT22;44854;50.838;4.438;2023-12-04T12:45:12;5.60;99.90
59067;DHT22;44854;50.838;4.438;2023-12-04T12:47:40;5.80;99.90
59067;DHT22;44854;50.838;4.438;2023-12-04T12:50:08;5.60;99.90
59067;DHT22;44854;50.838;4.438;2023-12-04T12:52:36;5.70;99.90
59067;DHT22;44854;50.838;4.438;2023-12-04T12:55:02;5.70;99.90
59067;DHT22;44854;50.838;4.438;2023-12-04T12:57:31;5.60;99.90
59067;DHT22;44854;50.838;4.438;2023-12-04T12:59:57;5.70;99.90
59067;DHT22;44854;50.838;4.438;2023-12-04T13:02:23;5.70;99.90
59067;DHT22;44854;50.838;4.438;2023-12-04T13:04:50;5.70;99.90
59067;DHT22;44854;50.838;4.438;2023-12-04T13:07:16;5.70;99.90
59067;DHT22;44854;50.838;4.438;2023-12-04T13:09:43;5.70;99.90
59067;DHT22;44854;50.838;4.438;2023-12-04T13:12:09;5.70;99.90
59067;DHT22;44854;50.838;4.438;2023-12-04T13:14:35;5.70;99.90
59067;DHT22;44854;50.838;4.438;2023-12-04T13:17:02;5.80;99.90
59067;DHT22;44854;50.838;4.438;2023-12-04T13:19:28;5.80;99.90
59067;DHT22;44854;50.838;4.438;2023-12-04T13:21:53;5.80;99.90
59067;DHT22;44854;50.838;4.438;2023-12-04T13:24:19;5.80;99.90
59067;DHT22;44854;50.838;4.438;2023-12-04T13:26:45;5.90;99.90
59067;DHT22;44854;50.838;4.438;2023-12-04T13:29:12;5.90;99.90
59067;DHT22;44854;50.838;4.438;2023-12-04T13:31:42;6.00;99.90
59067;DHT22;44854;50.838;4.438;2023-12-04T13:34:08;6.00;99.90
59067;DHT22;44854;50.838;4.438;2023-12-04T13:36:34;6.00;99.90
59067;DHT22;44854;50.838;4.438;2023-12-04T13:39:01;6.00;99.90
59067;DHT22;44854;50.838;4.438;2023-12-04T13:41:28;6.00;99.90
59067;DHT22;44854;50.838;4.438;2023-12-04T13:44:12;6.00;99.90
59067;DHT22;44854;50.838;4.438;2023-12-04T13:46:39;5.90;99.90
59067;DHT22;44854;50.838;4.438;2023-12-04T13:49:05;6.00;99.90
59067;DHT22;44854;50.838;4.438;2023-12-04T13:51:31;6.00;99.90
59067;DHT22;44854;50.838;4.438;2023-12-04T13:53:56;5.90;99.90
59067;DHT22;44854;50.838;4.438;2023-12-04T13:56:29;6.10;99.90
59067;DHT22;44854;50.838;4.438;2023-12-04T13:58:55;6.10;99.90
59067;DHT22;44854;50.838;4.438;2023-12-04T14:01:26;6.00;99.90
59067;DHT22;44854;50.838;4.438;2023-12-04T14:03:56;6.10;99.90
59067;DHT22;44854;50.838;4.438;2023-12-04T14:06:27;6.10;99.90
59067;DHT22;44854;50.838;4.438;2023-12-04T14:08:53;6.20;99.90
59067;DHT22;44854;50.838;4.438;2023-12-04T14:11:19;6.20;99.90
59067;DHT22;44854;50.838;4.438;2023-12-04T14:13:50;6.10;99.90
59067;DHT22;44854;50.838;4.438;2023-12-04T14:16:19;6.10;99.90
59067;DHT22;44854;50.838;4.438;2023-12-04T14:18:45;6.20;99.90
59067;DHT22;44854;50.838;4.438;2023-12-04T14:21:11;6.20;99.90
59067;DHT22;44854;50.838;4.438;2023-12-04T14:23:36;6.20;99.90
59067;DHT22;44854;50.838;4.438;2023-12-04T14:26:02;6.10;99.90
59067;DHT22;44854;50.838;4.438;2023-12-04T14:28:28;6.10;99.90
59067;DHT22;44854;50.838;4.438;2023-12-04T14:30:54;6.10;99.90
59067;DHT22;44854;50.838;4.438;2023-12-04T14:33:21;6.10;99.90
59067;DHT22;44854;50.838;4.438;2023-12-04T14:35:47;6.10;99.90
59067;DHT22;44854;50.838;4.438;2023-12-04T14:38:13;6.10;99.90
59067;DHT22;44854;50.838;4.438;2023-12-04T14:40:40;6.20;99.90
59067;DHT22;44854;50.838;4.438;2023-12-04T14:43:06;6.20;99.90
59067;DHT22;44854;50.838;4.438;2023-12-04T14:45:35;6.30;99.90
59067;DHT22;44854;50.838;4.438;2023-12-04T14:48:02;6.20;99.90
59067;DHT22;44854;50.838;4.438;2023-12-04T14:50:28;6.30;99.90
59067;DHT22;44854;50.838;4.438;2023-12-04T14:52:54;6.40;99.90
59067;DHT22;44854;50.838;4.438;2023-12-04T14:55:21;6.20;99.90
59067;DHT22;44854;50.838;4.438;2023-12-04T14:57:53;6.30;99.90
59067;DHT22;44854;50.838;4.438;2023-12-04T15:00:37;6.30;99.90
59067;DHT22;44854;50.838;4.438;2023-12-04T15:03:21;6.30;99.90
59067;DHT22;44854;50.838;4.438;2023-12-04T15:05:50;6.30;99.90
59067;DHT22;44854;50.838;4.438;2023-12-04T15:08:34;6.40;99.90
59067;DHT22;44854;50.838;4.438;2023-12-04T15:11:32;6.40;99.90
59067;DHT22;44854;50.838;4.438;2023-12-04T15:14:01;6.50;99.90
59067;DHT22;44854;50.838;4.438;2023-12-04T15:16:46;6.50;99.90
59067;DHT22;44854;50.838;4.438;2023-12-04T15:19:16;6.60;99.90
59067;DHT22;44854;50.838;4.438;2023-12-04T15:22:01;6.50;99.90
59067;DHT22;44854;50.838;4.438;2023-12-04T15:24:27;6.40;99.90
59067;DHT22;44854;50.838;4.438;2023-12-04T15:26:52;6.40;99.90
59067;DHT22;44854;50.838;4.438;2023-12-04T15:29:18;6.40;99.90
59067;DHT22;44854;50.838;4.438;2023-12-04T15:31:47;6.40;99.90
59067;DHT22;44854;50.838;4.438;2023-12-04T15:34:13;6.40;99.90
59067;DHT22;44854;50.838;4.438;2023-12-04T15:36:38;6.40;99.90
59067;DHT22;44854;50.838;4.438;2023-12-04T15:39:04;6.40;99.90
59067;DHT22;44854;50.838;4.438;2023-12-04T15:41:33;6.50;99.90
59067;DHT22;44854;50.838;4.438;2023-12-04T15:43:59;6.60;99.90
59067;DHT22;44854;50.838;4.438;2023-12-04T15:46:26;6.50;99.90
59067;DHT22;44854;50.838;4.438;2023-12-04T15:48:53;6.60;99.90
59067;DHT22;44854;50.838;4.438;2023-12-04T15:51:19;6.80;99.90
59067;DHT22;44854;50.838;4.438;2023-12-04T15:53:44;6.60;99.90
59067;DHT22;44854;50.838;4.438;2023-12-04T15:56:11;6.50;99.90
59067;DHT22;44854;50.838;4.438;2023-12-04T15:58:36;6.60;99.90
59067;DHT22;44854;50.838;4.438;2023-12-04T16:01:02;6.40;99.90
59067;DHT22;44854;50.838;4.438;2023-12-04T16:03:30;6.40;99.90
59067;DHT22;44854;50.838;4.438;2023-12-04T16:05:55;6.40;99.90
59067;DHT22;44854;50.838;4.438;2023-12-04T16:08:21;6.30;99.90
59067;DHT22;44854;50.838;4.438;2023-12-04T16:10:47;6.30;99.90
59067;DHT22;44854;50.838;4.438;2023-12-04T16:13:13;6.30;99.90
59067;DHT22;44854;50.838;4.438;2023-12-04T16:15:42;6.40;99.90